Time;durP1;ratioP1;P1;durP2;ratioP2;P2;SDS_P1;SDS_P2;PMS_P1;PMS_P2;Temp;Humidity;BMP_temperature;BMP_pressure;BME280_temperature;BME280_humidity;BME280_pressure;Samples;Min_cycle;Max_cycle;Signal;HPM_P1;HPM_P2
2023/10/04 00:00:31;;;;;;;11.85;2.75;;;13.70;99.90;;;;;;5029948;28;20052;-53
2023/10/04 00:02:58;;;;;;;12.13;3.20;;;13.70;99.90;;;;;;5047957;28;20549;-53
2023/10/04 00:05:25;;;;;;;14.65;3.47;;;13.60;99.90;;;;;;5049646;28;20045;-52
2023/10/04 00:07:55;;;;;;;18.27;3.83;;;13.60;99.90;;;;;;5057519;28;20048;-53
2023/10/04 00:10:23;;;;;;;12.82;3.15;;;13.50;99.90;;;;;;5049395;28;20389;-54
2023/10/04 00:12:50;;;;;;;21.23;3.95;;;13.50;99.90;;;;;;5050512;28;20045;-52
2023/10/04 00:15:20;;;;;;;10.95;2.95;;;13.50;99.90;;;;;;5047974;28;20291;-53
2023/10/04 00:17:48;;;;;;;17.95;3.30;;;13.50;99.90;;;;;;5049507;28;20044;-53
2023/10/04 00:20:19;;;;;;;15.45;3.28;;;13.40;99.90;;;;;;5030212;28;20052;-55
2023/10/04 00:22:49;;;;;;;10.55;2.95;;;13.40;99.90;;;;;;5054536;28;20040;-55
2023/10/04 00:25:20;;;;;;;14.05;2.75;;;13.40;99.90;;;;;;5068006;28;20048;-52
2023/10/04 00:27:48;;;;;;;18.30;3.13;;;13.40;99.90;;;;;;5053955;28;20098;-53
2023/10/04 00:30:15;;;;;;;21.17;4.28;;;13.30;99.90;;;;;;5054175;28;20049;-54
2023/10/04 00:32:42;;;;;;;15.25;4.75;;;13.30;99.90;;;;;;5049105;28;20495;-54
2023/10/04 00:35:11;;;;;;;10.88;3.15;;;13.30;99.90;;;;;;5067505;28;20048;-53
2023/10/04 00:37:42;;;;;;;16.70;4.35;;;13.20;99.90;;;;;;5055725;28;20367;-51
2023/10/04 00:40:15;;;;;;;13.90;3.20;;;13.20;99.90;;;;;;5043626;28;20041;-53
2023/10/04 00:42:42;;;;;;;10.88;2.42;;;13.20;99.90;;;;;;5057722;28;20419;-56
2023/10/04 00:45:13;;;;;;;12.43;3.25;;;13.20;99.90;;;;;;5048743;28;20495;-55
2023/10/04 00:47:42;;;;;;;10.50;3.25;;;13.20;99.90;;;;;;5050829;28;20385;-53
2023/10/04 00:50:17;;;;;;;22.05;3.42;;;13.20;99.90;;;;;;5046617;28;20048;-54
2023/10/04 00:52:47;;;;;;;20.42;3.78;;;13.20;99.90;;;;;;5058858;28;20040;-51
2023/10/04 00:55:16;;;;;;;13.38;3.28;;;13.10;99.90;;;;;;5035940;28;20471;-54
2023/10/04 00:57:43;;;;;;;19.30;5.50;;;13.10;99.90;;;;;;5024347;28;20045;-55
2023/10/04 01:00:11;;;;;;;13.40;2.72;;;13.10;99.90;;;;;;5028862;28;20045;-53
2023/10/04 01:02:39;;;;;;;10.30;2.72;;;13.10;99.90;;;;;;5047999;28;20419;-54
2023/10/04 01:05:07;;;;;;;11.73;3.03;;;13.10;99.90;;;;;;5039008;28;20094;-53
2023/10/04 01:07:38;;;;;;;20.98;3.95;;;13.10;99.90;;;;;;5030955;28;20098;-53
2023/10/04 01:10:14;;;;;;;20.10;3.72;;;13.10;99.90;;;;;;5057723;28;20110;-53
2023/10/04 01:12:43;;;;;;;9.95;2.53;;;13.10;99.90;;;;;;5044497;28;20045;-53
2023/10/04 01:17:56;;;;;;;20.25;3.60;;;13.00;99.90;;;;;;5048364;28;20487;-60
2023/10/04 01:20:24;;;;;;;13.60;3.45;;;13.00;99.90;;;;;;5056670;28;20503;-53
2023/10/04 01:22:51;;;;;;;11.02;2.75;;;13.00;99.90;;;;;;5050274;28;20053;-54
2023/10/04 01:25:19;;;;;;;16.45;2.72;;;13.00;99.90;;;;;;5055242;28;20182;-53
2023/10/04 01:27:46;;;;;;;14.27;2.78;;;12.90;99.90;;;;;;5058138;28;20052;-53
2023/10/04 01:30:16;;;;;;;16.52;3.60;;;12.90;99.90;;;;;;5055087;28;20079;-55
2023/10/04 01:32:43;;;;;;;11.82;2.65;;;12.90;99.90;;;;;;5047624;28;20049;-51
2023/10/04 01:35:12;;;;;;;7.40;2.47;;;12.90;99.90;;;;;;5058433;28;20562;-56
2023/10/04 01:37:39;;;;;;;17.20;3.63;;;12.80;99.90;;;;;;5046317;28;20412;-52
2023/10/04 01:40:14;;;;;;;14.68;3.30;;;12.90;99.90;;;;;;5033552;28;20295;-54
2023/10/04 01:42:41;;;;;;;12.98;3.40;;;12.80;99.90;;;;;;5046948;28;20049;-52
2023/10/04 01:45:12;;;;;;;18.52;3.85;;;12.80;99.90;;;;;;5059539;28;20602;-56
2023/10/04 01:47:39;;;;;;;16.23;2.85;;;12.80;99.90;;;;;;5046307;28;20135;-55
2023/10/04 01:50:09;;;;;;;13.18;4.10;;;12.80;99.90;;;;;;5050378;28;20121;-55
2023/10/04 01:52:36;;;;;;;11.70;3.03;;;12.80;99.90;;;;;;5046789;28;20104;-57
2023/10/04 01:55:05;;;;;;;13.90;3.33;;;12.80;99.90;;;;;;5056692;28;20102;-56
2023/10/04 01:57:34;;;;;;;13.95;2.38;;;12.80;99.90;;;;;;5048227;28;20053;-56
2023/10/04 02:00:01;;;;;;;11.77;2.95;;;12.80;99.90;;;;;;5047421;28;20057;-54
2023/10/04 02:02:28;;;;;;;20.95;3.15;;;12.80;99.90;;;;;;5056386;28;20060;-55
2023/10/04 02:04:56;;;;;;;21.70;4.07;;;12.80;99.90;;;;;;5048237;28;20102;-52
2023/10/04 02:07:23;;;;;;;12.88;2.80;;;12.80;99.90;;;;;;5053941;28;20130;-52
2023/10/04 02:09:51;;;;;;;17.15;3.10;;;12.80;99.90;;;;;;5046625;28;20109;-53
2023/10/04 02:12:22;;;;;;;14.93;4.05;;;12.80;99.90;;;;;;5058560;28;20098;-53
2023/10/04 02:14:53;;;;;;;11.13;2.72;;;12.80;99.90;;;;;;5061819;28;20045;-55
2023/10/04 02:17:22;;;;;;;21.52;3.50;;;12.80;99.90;;;;;;5058991;28;20118;-54
2023/10/04 02:19:49;;;;;;;18.33;4.50;;;12.80;99.90;;;;;;5051014;28;20045;-53
2023/10/04 02:22:18;;;;;;;22.73;4.55;;;12.80;99.90;;;;;;5048411;28;20044;-50
2023/10/04 02:24:45;;;;;;;12.30;2.95;;;12.80;99.90;;;;;;5067494;28;20059;-50
2023/10/04 02:27:12;;;;;;;14.13;3.03;;;12.80;99.90;;;;;;5061638;28;20037;-54
2023/10/04 02:29:39;;;;;;;16.88;3.05;;;12.80;99.90;;;;;;5049905;28;20056;-50
2023/10/04 02:32:09;;;;;;;18.70;3.05;;;12.80;99.90;;;;;;5060998;28;20558;-53
2023/10/04 02:34:36;;;;;;;10.13;2.42;;;12.80;99.90;;;;;;5049917;28;20127;-52
2023/10/04 02:37:09;;;;;;;10.43;3.63;;;12.80;99.90;;;;;;5062280;28;20044;-53
2023/10/04 02:39:39;;;;;;;11.88;3.15;;;12.80;99.90;;;;;;5069352;28;20053;-57
2023/10/04 02:42:12;;;;;;;19.35;3.10;;;12.90;99.90;;;;;;5056796;28;20318;-55
2023/10/04 02:44:42;;;;;;;14.80;2.57;;;12.80;99.90;;;;;;5045166;28;20045;-53
2023/10/04 02:47:09;;;;;;;15.50;2.53;;;12.80;99.90;;;;;;5039320;28;20283;-50
2023/10/04 02:49:39;;;;;;;17.35;3.13;;;12.80;99.90;;;;;;5051667;28;20515;-53
2023/10/04 02:52:11;;;;;;;16.77;2.78;;;12.80;99.90;;;;;;5054052;28;20049;-52
2023/10/04 02:54:41;;;;;;;9.93;2.30;;;12.80;99.90;;;;;;5054576;28;20188;-54
2023/10/04 02:57:07;;;;;;;14.27;2.60;;;12.80;99.90;;;;;;5051217;28;20365;-55
2023/10/04 02:59:38;;;;;;;18.45;3.28;;;12.80;99.90;;;;;;5055788;28;20041;-54
2023/10/04 03:02:04;;;;;;;12.55;2.42;;;12.80;99.90;;;;;;5050745;28;20072;-53
2023/10/04 03:04:31;;;;;;;17.05;2.63;;;12.80;99.90;;;;;;5049959;28;20106;-52
2023/10/04 03:06:58;;;;;;;12.20;2.88;;;12.80;99.90;;;;;;5050941;28;20095;-51
2023/10/04 03:09:25;;;;;;;15.05;3.15;;;12.80;99.90;;;;;;5063110;28;20087;-52
2023/10/04 03:11:53;;;;;;;14.07;2.13;;;12.80;99.90;;;;;;5064765;28;20052;-50
2023/10/04 03:14:20;;;;;;;11.30;2.67;;;12.80;99.90;;;;;;5061207;28;20502;-51
2023/10/04 03:16:46;;;;;;;9.30;2.13;;;12.80;99.90;;;;;;5052194;28;20048;-54
2023/10/04 03:19:16;;;;;;;11.88;2.40;;;12.70;99.90;;;;;;5042249;28;20059;-54
2023/10/04 03:21:45;;;;;;;13.27;2.10;;;12.70;99.90;;;;;;5050054;28;20049;-50
2023/10/04 03:24:14;;;;;;;12.88;2.20;;;12.70;99.90;;;;;;5049823;28;20049;-52
2023/10/04 03:26:41;;;;;;;10.60;2.35;;;12.70;99.90;;;;;;5031168;28;20042;-54
2023/10/04 03:29:11;;;;;;;17.20;3.85;;;12.70;99.90;;;;;;5057203;28;20048;-51
2023/10/04 03:31:39;;;;;;;12.55;2.53;;;12.70;99.90;;;;;;5050141;28;20053;-53
2023/10/04 03:34:07;;;;;;;12.45;1.88;;;12.70;99.90;;;;;;5047819;28;20514;-52
2023/10/04 03:36:34;;;;;;;12.63;2.25;;;12.70;99.90;;;;;;5029201;28;20045;-51
2023/10/04 03:39:03;;;;;;;14.50;2.50;;;12.70;99.90;;;;;;5060592;28;20115;-55
2023/10/04 03:41:30;;;;;;;8.52;2.83;;;12.70;99.90;;;;;;5049202;28;20053;-52
2023/10/04 03:43:57;;;;;;;16.30;3.17;;;12.70;99.90;;;;;;5053091;28;20045;-53
2023/10/04 03:46:24;;;;;;;14.55;2.30;;;12.60;99.90;;;;;;5064457;28;20458;-53
2023/10/04 03:48:51;;;;;;;11.25;2.20;;;12.60;99.90;;;;;;5050054;28;20170;-52
2023/10/04 03:51:21;;;;;;;12.02;2.35;;;12.60;99.90;;;;;;5050505;28;20511;-54
2023/10/04 03:53:49;;;;;;;13.15;2.22;;;12.60;99.90;;;;;;5049796;28;20435;-50
2023/10/04 03:56:17;;;;;;;11.63;2.42;;;12.50;99.90;;;;;;5065365;28;20057;-54
2023/10/04 03:58:44;;;;;;;20.27;3.40;;;12.60;99.90;;;;;;5063863;28;20040;-53
2023/10/04 04:01:13;;;;;;;10.48;2.47;;;12.60;99.90;;;;;;5035749;28;20511;-53
2023/10/04 04:03:40;;;;;;;18.88;3.03;;;12.50;99.90;;;;;;5052160;28;20080;-55
2023/10/04 04:06:08;;;;;;;14.45;2.33;;;12.50;99.90;;;;;;5030497;28;20052;-53
2023/10/04 04:08:36;;;;;;;10.45;2.22;;;12.40;99.90;;;;;;5054823;28;20040;-51
2023/10/04 04:11:05;;;;;;;15.15;2.92;;;12.50;99.90;;;;;;5059000;28;20564;-51
2023/10/04 04:13:36;;;;;;;15.10;2.95;;;12.50;99.90;;;;;;5066868;28;20250;-55
2023/10/04 04:16:09;;;;;;;15.45;3.30;;;12.40;99.90;;;;;;5048999;28;20059;-53
2023/10/04 04:18:37;;;;;;;10.80;2.35;;;12.50;99.90;;;;;;5050982;28;20052;-51
2023/10/04 04:21:05;;;;;;;12.85;2.15;;;12.40;99.90;;;;;;5039638;28;20048;-51
2023/10/04 04:23:32;;;;;;;14.95;2.33;;;12.30;99.90;;;;;;5066932;28;20151;-57
2023/10/04 04:26:05;;;;;;;13.30;2.30;;;12.40;99.90;;;;;;5059495;28;20155;-56
2023/10/04 04:28:35;;;;;;;14.30;2.42;;;12.40;99.90;;;;;;5047267;28;20511;-53
2023/10/04 04:31:09;;;;;;;12.32;2.15;;;12.40;99.90;;;;;;5052884;28;20045;-53
2023/10/04 04:33:36;;;;;;;8.25;1.70;;;12.40;99.90;;;;;;5049561;28;20071;-54
2023/10/04 04:36:12;;;;;;;9.95;2.03;;;12.40;99.90;;;;;;5060031;28;20044;-55
2023/10/04 04:38:40;;;;;;;16.63;2.70;;;12.30;99.90;;;;;;5047267;28;20049;-53
2023/10/04 04:41:12;;;;;;;11.80;2.10;;;12.30;99.90;;;;;;5062649;28;20052;-53
2023/10/04 04:43:39;;;;;;;12.50;3.03;;;12.30;99.90;;;;;;5066793;28;20048;-55
2023/10/04 04:46:09;;;;;;;13.13;2.33;;;12.30;99.90;;;;;;5059468;28;20044;-52
2023/10/04 04:48:36;;;;;;;12.63;2.28;;;12.20;99.90;;;;;;5029753;28;20075;-52
2023/10/04 04:51:14;;;;;;;13.48;2.92;;;12.20;99.90;;;;;;5050614;28;20067;-54
2023/10/04 04:53:45;;;;;;;12.20;2.75;;;12.20;99.90;;;;;;5030274;28;20155;-54
2023/10/04 04:56:14;;;;;;;10.52;2.72;;;12.20;99.90;;;;;;5060617;28;20124;-53
2023/10/04 04:58:48;;;;;;;11.13;2.28;;;12.30;99.90;;;;;;5043607;28;20628;-53
2023/10/04 05:01:15;;;;;;;9.00;2.25;;;12.20;99.90;;;;;;5055369;28;20084;-52
2023/10/04 05:03:43;;;;;;;6.18;2.47;;;12.20;99.90;;;;;;5051574;28;20055;-51
2023/10/04 05:06:14;;;;;;;11.38;2.58;;;12.20;99.90;;;;;;5054771;28;20048;-52
2023/10/04 05:08:41;;;;;;;10.50;2.70;;;12.20;99.90;;;;;;5067280;28;20076;-53
2023/10/04 05:11:09;;;;;;;14.65;2.70;;;12.10;99.90;;;;;;5055510;28;20500;-54
2023/10/04 05:13:36;;;;;;;15.60;1.90;;;12.10;99.90;;;;;;5047493;28;20045;-55
2023/10/04 05:16:05;;;;;;;17.88;4.00;;;12.10;99.90;;;;;;5050565;28;20106;-54
2023/10/04 05:18:32;;;;;;;14.88;2.45;;;12.00;99.90;;;;;;5047340;28;20067;-51
2023/10/04 05:21:00;;;;;;;11.65;2.92;;;12.00;99.90;;;;;;5040889;28;20135;-51
2023/10/04 05:23:28;;;;;;;7.85;2.10;;;12.00;99.90;;;;;;5014678;28;20045;-55
2023/10/04 05:25:55;;;;;;;23.55;2.33;;;12.00;99.90;;;;;;5034567;28;20102;-53
2023/10/04 05:28:24;;;;;;;28.27;4.07;;;12.00;99.90;;;;;;5051704;28;20045;-53
2023/10/04 05:30:51;;;;;;;22.92;3.38;;;12.00;99.90;;;;;;5039346;28;20092;-54
2023/10/04 05:33:19;;;;;;;16.98;2.50;;;12.00;99.90;;;;;;5047516;28;20080;-55
2023/10/04 05:35:48;;;;;;;11.07;2.63;;;12.00;99.90;;;;;;5043703;28;20041;-54
2023/10/04 05:38:17;;;;;;;11.98;2.88;;;12.00;99.90;;;;;;5047214;28;20037;-55
2023/10/04 05:40:46;;;;;;;12.07;2.72;;;12.00;99.90;;;;;;5041567;28;20126;-57
2023/10/04 05:43:14;;;;;;;9.65;2.25;;;12.00;99.90;;;;;;5042465;28;20045;-54
2023/10/04 05:45:44;;;;;;;9.68;2.38;;;12.00;99.90;;;;;;5017324;28;20106;-53
2023/10/04 05:48:11;;;;;;;14.18;2.65;;;12.00;99.90;;;;;;5028893;28;20120;-55
2023/10/04 05:50:39;;;;;;;10.38;2.05;;;12.00;99.90;;;;;;5039784;28;20049;-53
2023/10/04 05:53:06;;;;;;;11.98;2.30;;;12.00;99.90;;;;;;5050304;28;20480;-54
2023/10/04 05:55:37;;;;;;;11.25;2.40;;;12.00;99.90;;;;;;5041550;28;20049;-55
2023/10/04 05:58:07;;;;;;;12.45;2.10;;;12.00;99.90;;;;;;5048303;28;20045;-54
2023/10/04 06:00:37;;;;;;;17.85;2.95;;;11.90;99.90;;;;;;5049792;28;20049;-54
2023/10/04 06:03:06;;;;;;;15.98;2.20;;;11.90;99.90;;;;;;5050548;28;20045;-53
2023/10/04 06:05:37;;;;;;;10.88;2.88;;;12.00;99.90;;;;;;5059453;28;20148;-54
2023/10/04 06:08:15;;;;;;;7.80;1.55;;;12.00;99.90;;;;;;5054385;28;20068;-53
2023/10/04 06:10:43;;;;;;;16.60;2.60;;;12.00;99.90;;;;;;5045094;28;20045;-53
2023/10/04 06:13:14;;;;;;;13.85;2.33;;;12.10;99.90;;;;;;5042194;28;20446;-55
2023/10/04 06:15:41;;;;;;;10.95;2.45;;;12.10;99.90;;;;;;5040866;28;20111;-54
2023/10/04 06:18:09;;;;;;;12.70;1.75;;;12.20;99.90;;;;;;5036708;28;20037;-54
2023/10/04 06:20:36;;;;;;;17.55;1.95;;;12.20;99.90;;;;;;5059155;28;20053;-51
2023/10/04 06:23:07;;;;;;;7.15;1.90;;;12.20;99.90;;;;;;5049568;28;20406;-54
2023/10/04 06:25:38;;;;;;;21.30;2.55;;;12.30;99.90;;;;;;5056094;28;20474;-54
2023/10/04 06:28:05;;;;;;;13.02;2.67;;;12.30;99.90;;;;;;5042583;28;20098;-52
2023/10/04 06:30:33;;;;;;;12.88;2.65;;;12.30;99.90;;;;;;5042667;28;20049;-52
2023/10/04 06:33:01;;;;;;;15.25;2.05;;;12.40;99.90;;;;;;5037587;28;20106;-55
2023/10/04 06:35:28;;;;;;;16.20;2.95;;;12.40;99.90;;;;;;5049987;28;20040;-54
2023/10/04 06:37:56;;;;;;;11.77;2.60;;;12.40;99.90;;;;;;5040550;28;20619;-54
2023/10/04 06:40:26;;;;;;;14.85;1.63;;;12.40;99.90;;;;;;5029571;28;20040;-50
2023/10/04 06:42:55;;;;;;;10.00;2.38;;;12.40;99.90;;;;;;5053705;28;20106;-54
2023/10/04 06:45:26;;;;;;;5.40;1.77;;;12.40;99.90;;;;;;5043902;28;20688;-51
2023/10/04 06:47:54;;;;;;;8.38;1.90;;;12.40;99.90;;;;;;5046047;28;20068;-54
2023/10/04 06:50:28;;;;;;;11.00;1.83;;;12.50;99.90;;;;;;5049148;28;20048;-53
2023/10/04 06:52:56;;;;;;;10.68;2.42;;;12.50;99.90;;;;;;5042366;28;20045;-56
2023/10/04 06:55:23;;;;;;;10.25;2.17;;;12.50;99.90;;;;;;5045130;28;20118;-55
2023/10/04 06:57:50;;;;;;;11.40;1.92;;;12.60;99.90;;;;;;5047528;28;20581;-55
2023/10/04 07:00:22;;;;;;;11.20;2.58;;;12.50;99.90;;;;;;5044003;28;20115;-54
2023/10/04 07:02:54;;;;;;;10.43;1.95;;;12.60;99.90;;;;;;5032725;28;20062;-50
2023/10/04 07:05:23;;;;;;;8.80;1.63;;;12.70;99.90;;;;;;5043286;28;20416;-52
2023/10/04 07:07:54;;;;;;;14.93;2.38;;;12.70;99.90;;;;;;5039295;28;20045;-54
2023/10/04 07:10:21;;;;;;;7.25;2.00;;;12.70;99.90;;;;;;5048167;28;20086;-51
2023/10/04 07:12:51;;;;;;;21.55;2.05;;;12.70;99.90;;;;;;5060259;28;20195;-55
2023/10/04 07:15:19;;;;;;;10.57;2.05;;;12.70;99.90;;;;;;5035868;28;20060;-53
2023/10/04 07:17:49;;;;;;;22.60;3.40;;;12.70;99.90;;;;;;5037751;28;20052;-53
2023/10/04 07:20:16;;;;;;;14.48;1.80;;;12.90;99.90;;;;;;5048885;28;20214;-55
2023/10/04 07:22:58;;;;;;;12.35;3.45;;;12.90;99.90;;;;;;5025003;28;20358;-51
2023/10/04 07:25:26;;;;;;;15.15;2.38;;;12.90;99.90;;;;;;5051669;28;20052;-54
2023/10/04 07:27:54;;;;;;;10.52;2.20;;;12.90;99.90;;;;;;5045725;28;20045;-53
2023/10/04 07:30:22;;;;;;;14.20;2.05;;;13.00;99.90;;;;;;5046483;28;20098;-54
2023/10/04 07:32:52;;;;;;;12.38;1.80;;;13.00;99.90;;;;;;5051073;28;20091;-53
2023/10/04 07:35:21;;;;;;;10.23;1.95;;;13.00;99.90;;;;;;5048987;28;20136;-54
2023/10/04 07:37:49;;;;;;;9.27;2.10;;;13.00;99.90;;;;;;5055404;28;20072;-53
2023/10/04 07:40:16;;;;;;;15.02;2.33;;;13.10;99.90;;;;;;5047818;28;20057;-54
2023/10/04 07:42:51;;;;;;;9.27;1.75;;;13.10;99.90;;;;;;5063243;28;20048;-54
2023/10/04 07:45:18;;;;;;;11.48;1.67;;;13.20;99.90;;;;;;5066591;28;20091;-53
2023/10/04 07:47:45;;;;;;;9.82;1.60;;;13.30;99.90;;;;;;5058632;28;20099;-53
2023/10/04 07:50:15;;;;;;;14.93;2.35;;;13.30;99.90;;;;;;5045589;28;20077;-54
2023/10/04 07:52:44;;;;;;;7.35;1.40;;;13.40;99.90;;;;;;5051998;28;20045;-54
2023/10/04 07:55:22;;;;;;;11.18;1.83;;;13.50;99.90;;;;;;5048451;28;20060;-51
2023/10/04 07:57:50;;;;;;;11.43;2.13;;;13.60;99.90;;;;;;5036717;28;20047;-56
2023/10/04 08:00:17;;;;;;;13.50;1.90;;;13.60;99.90;;;;;;5052859;28;20044;-54
2023/10/04 08:02:51;;;;;;;11.88;3.10;;;13.60;99.90;;;;;;5053022;28;20049;-54
2023/10/04 08:05:26;;;;;;;21.05;2.45;;;13.70;99.90;;;;;;5051418;28;20041;-55
2023/10/04 08:07:54;;;;;;;6.95;1.90;;;13.70;99.90;;;;;;5048172;28;20051;-55
2023/10/04 08:10:25;;;;;;;16.20;2.38;;;13.90;99.90;;;;;;5052896;28;20130;-55
2023/10/04 08:12:54;;;;;;;8.10;1.48;;;13.90;99.90;;;;;;5017962;28;20056;-56
2023/10/04 08:15:26;;;;;;;10.40;3.10;;;13.90;99.90;;;;;;5029807;28;20397;-54
2023/10/04 08:17:54;;;;;;;12.45;3.00;;;13.90;99.90;;;;;;5062653;28;20054;-54
2023/10/04 08:20:22;;;;;;;7.63;1.48;;;14.00;99.90;;;;;;5055459;28;20059;-53
2023/10/04 08:22:48;;;;;;;6.82;1.92;;;14.00;99.90;;;;;;5057844;28;20090;-54
2023/10/04 08:25:16;;;;;;;13.57;2.83;;;14.00;99.90;;;;;;5064732;28;20052;-52
2023/10/04 08:27:44;;;;;;;12.85;1.77;;;14.00;99.90;;;;;;5063103;28;20095;-54
2023/10/04 08:30:16;;;;;;;14.73;2.03;;;13.90;99.90;;;;;;5050333;28;20472;-53
2023/10/04 08:32:47;;;;;;;8.57;2.42;;;14.00;99.90;;;;;;5047521;28;20166;-57
2023/10/04 08:35:33;;;;;;;11.55;1.55;;;14.10;99.90;;;;;;5059462;28;20048;-52
2023/10/04 08:38:03;;;;;;;9.20;1.50;;;14.10;99.90;;;;;;5063091;28;20128;-56
2023/10/04 08:40:30;;;;;;;7.70;1.83;;;14.00;99.90;;;;;;5051798;28;20095;-56
2023/10/04 08:42:58;;;;;;;11.55;1.90;;;14.10;99.90;;;;;;5036961;28;20060;-55
2023/10/04 08:45:29;;;;;;;19.17;2.00;;;14.10;99.90;;;;;;5047753;28;20047;-55
2023/10/04 08:47:57;;;;;;;9.85;2.25;;;14.10;99.90;;;;;;5052071;28;20055;-53
2023/10/04 08:50:41;;;;;;;17.50;3.08;;;14.20;99.90;;;;;;5053903;28;20535;-56
2023/10/04 08:53:20;;;;;;;8.77;2.25;;;14.20;99.90;;;;;;5052187;28;20071;-53
2023/10/04 08:55:51;;;;;;;10.05;1.73;;;14.20;99.90;;;;;;5051737;28;20044;-54
2023/10/04 08:58:19;;;;;;;12.98;1.83;;;14.40;99.90;;;;;;5053139;28;20283;-56
2023/10/04 09:00:48;;;;;;;8.95;1.80;;;14.50;99.90;;;;;;5045268;28;20516;-52
2023/10/04 09:03:15;;;;;;;10.15;2.22;;;14.60;99.90;;;;;;5057323;28;20048;-53
2023/10/04 09:05:50;;;;;;;11.05;2.25;;;14.70;99.90;;;;;;5040675;28;20503;-57
2023/10/04 09:08:17;;;;;;;7.85;1.75;;;14.70;99.90;;;;;;5050268;28;20136;-54
2023/10/04 09:10:44;;;;;;;25.33;4.15;;;14.70;99.90;;;;;;5055964;28;20049;-53
2023/10/04 09:13:12;;;;;;;9.63;1.88;;;14.70;99.90;;;;;;5053454;28;20475;-53
2023/10/04 09:15:39;;;;;;;7.55;1.63;;;14.80;99.90;;;;;;5049758;28;20059;-53
2023/10/04 09:18:07;;;;;;;6.05;1.50;;;14.90;99.90;;;;;;5028766;28;20091;-52
2023/10/04 09:20:35;;;;;;;12.88;3.03;;;14.90;99.90;;;;;;5051709;28;20048;-52
2023/10/04 09:23:15;;;;;;;10.02;2.30;;;14.90;99.90;;;;;;5062867;28;20049;-54
2023/10/04 09:25:42;;;;;;;16.75;2.42;;;15.00;99.90;;;;;;5030535;28;20041;-52
2023/10/04 09:28:11;;;;;;;16.55;2.03;;;15.00;99.90;;;;;;5027681;28;20069;-52
2023/10/04 09:30:37;;;;;;;11.10;2.10;;;15.00;99.90;;;;;;5051539;28;20055;-50
2023/10/04 09:33:06;;;;;;;11.65;2.58;;;15.10;99.90;;;;;;5066128;28;20053;-52
2023/10/04 09:35:42;;;;;;;12.68;2.13;;;15.20;99.90;;;;;;5036036;28;20439;-54
2023/10/04 09:38:16;;;;;;;13.60;3.15;;;15.30;99.90;;;;;;5026869;28;20060;-55
2023/10/04 09:40:56;;;;;;;9.98;2.15;;;15.40;99.90;;;;;;5045408;28;20060;-52
2023/10/04 09:43:35;;;;;;;9.32;2.38;;;15.50;99.90;;;;;;5048739;28;20041;-55
2023/10/04 09:46:07;;;;;;;13.85;4.03;;;15.50;99.90;;;;;;5051063;28;20524;-51
2023/10/04 09:48:37;;;;;;;13.85;4.43;;;15.60;99.90;;;;;;5066555;28;20487;-53
2023/10/04 09:51:06;;;;;;;16.00;3.33;;;15.60;99.90;;;;;;5054404;28;20064;-51
2023/10/04 09:53:34;;;;;;;11.25;3.08;;;15.60;99.90;;;;;;5046803;28;20072;-53
2023/10/04 09:56:02;;;;;;;13.68;3.50;;;15.70;99.90;;;;;;5050176;28;20076;-52
2023/10/04 09:58:30;;;;;;;10.57;3.00;;;15.80;99.90;;;;;;5044670;28;20053;-51
2023/10/04 10:01:11;;;;;;;6.93;2.20;;;15.90;99.90;;;;;;5050676;28;20407;-55
2023/10/04 10:03:43;;;;;;;15.98;3.80;;;15.90;99.90;;;;;;5046618;28;20132;-52
2023/10/04 10:06:10;;;;;;;11.48;2.85;;;15.90;99.90;;;;;;5045124;28;20072;-55
2023/10/04 10:08:38;;;;;;;10.63;1.88;;;15.90;99.90;;;;;;5059598;28;20455;-52
2023/10/04 10:11:05;;;;;;;12.55;2.83;;;15.80;99.90;;;;;;5032971;28;20114;-51
2023/10/04 10:13:32;;;;;;;12.55;2.17;;;15.90;99.90;;;;;;5043148;28;20102;-55
2023/10/04 10:15:59;;;;;;;10.68;2.10;;;15.90;99.90;;;;;;5020761;28;20119;-51
2023/10/04 10:18:27;;;;;;;11.52;1.90;;;15.90;99.90;;;;;;5024323;28;20127;-49
2023/10/04 10:20:57;;;;;;;8.93;1.70;;;16.00;99.90;;;;;;5061934;28;20258;-51
2023/10/04 10:23:24;;;;;;;8.18;2.20;;;16.00;99.90;;;;;;5056982;28;20562;-53
2023/10/04 10:26:20;;;;;;;6.47;2.30;;;16.10;99.90;;;;;;5031340;28;20049;-54
2023/10/04 10:28:48;;;;;;;14.85;2.10;;;16.10;99.90;;;;;;5049356;28;20125;-52
2023/10/04 10:31:22;;;;;;;9.43;2.30;;;16.10;99.90;;;;;;5064077;28;20068;-54
2023/10/04 10:33:50;;;;;;;18.85;2.97;;;16.20;99.90;;;;;;5053648;28;20638;-54
2023/10/04 10:36:21;;;;;;;8.57;2.30;;;16.30;99.90;;;;;;5049568;28;20075;-55
2023/10/04 10:38:49;;;;;;;10.10;2.75;;;16.20;99.90;;;;;;5047888;28;20079;-53
2023/10/04 10:41:55;;;;;;;12.20;2.25;;;16.30;99.90;;;;;;5053866;28;20128;-53
2023/10/04 10:44:30;;;;;;;12.93;2.90;;;16.20;99.90;;;;;;5051680;28;20191;-53
2023/10/04 10:47:01;;;;;;;7.50;2.72;;;16.20;99.90;;;;;;5052255;28;20051;-55
2023/10/04 10:49:39;;;;;;;14.23;2.10;;;16.20;99.90;;;;;;5061380;28;20139;-54
2023/10/04 10:52:26;;;;;;;10.88;1.95;;;16.40;99.90;;;;;;5066384;28;20048;-52
2023/10/04 10:54:54;;;;;;;6.20;1.52;;;16.40;99.90;;;;;;5051009;28;20057;-53
2023/10/04 10:57:21;;;;;;;6.13;1.92;;;16.50;99.90;;;;;;5050958;28;20065;-53
2023/10/04 10:59:53;;;;;;;6.40;1.70;;;16.50;99.90;;;;;;5061030;28;20059;-50
2023/10/04 11:02:20;;;;;;;11.27;2.03;;;16.60;99.90;;;;;;5064362;28;20056;-51
2023/10/04 11:04:48;;;;;;;5.97;1.48;;;16.70;99.90;;;;;;5068708;28;20094;-50
2023/10/04 11:07:17;;;;;;;10.90;2.42;;;16.70;99.90;;;;;;5054670;28;20419;-51
2023/10/04 11:09:50;;;;;;;5.22;1.45;;;16.80;99.90;;;;;;5040303;28;20044;-52
2023/10/04 11:12:23;;;;;;;8.20;1.70;;;16.90;99.90;;;;;;5067134;28;20067;-52
2023/10/04 11:14:51;;;;;;;6.93;2.35;;;17.00;99.90;;;;;;5060259;28;20406;-55
2023/10/04 11:17:20;;;;;;;6.25;1.60;;;17.10;99.90;;;;;;5031274;28;20052;-55
2023/10/04 11:19:47;;;;;;;4.72;1.98;;;17.20;99.90;;;;;;5062218;28;20047;-55
2023/10/04 11:22:14;;;;;;;4.53;1.60;;;17.30;99.90;;;;;;5049618;28;20048;-55
2023/10/04 11:24:41;;;;;;;4.75;1.63;;;17.40;99.90;;;;;;5034886;28;20118;-51
2023/10/04 11:27:08;;;;;;;8.52;1.92;;;17.30;99.90;;;;;;5027748;28;20156;-52
2023/10/04 11:29:35;;;;;;;7.38;1.67;;;17.50;99.90;;;;;;5036388;28;20162;-53
2023/10/04 11:32:02;;;;;;;8.32;1.63;;;17.50;99.90;;;;;;5032167;28;20047;-55
2023/10/04 11:34:35;;;;;;;4.43;1.42;;;17.60;99.90;;;;;;5057467;28;20087;-54
2023/10/04 11:37:02;;;;;;;7.00;1.40;;;17.70;99.90;;;;;;5029068;28;20427;-55
2023/10/04 11:39:33;;;;;;;6.72;1.67;;;17.80;99.90;;;;;;5052676;28;20037;-51
2023/10/04 11:42:04;;;;;;;11.18;1.88;;;17.80;99.90;;;;;;5058771;28;20055;-55
2023/10/04 11:44:35;;;;;;;11.43;2.55;;;17.80;99.90;;;;;;5064431;28;20053;-54
2023/10/04 11:47:08;;;;;;;5.07;2.20;;;17.80;99.90;;;;;;5051471;28;20552;-52
2023/10/04 11:49:36;;;;;;;7.07;1.40;;;18.00;99.90;;;;;;5034259;28;20535;-54
2023/10/04 11:52:07;;;;;;;4.38;1.25;;;18.20;99.90;;;;;;5045305;28;20048;-53
2023/10/04 11:54:41;;;;;;;2.80;1.15;;;18.20;99.90;;;;;;5050931;28;20135;-51
2023/10/04 11:57:08;;;;;;;7.47;1.98;;;18.30;99.90;;;;;;5059251;28;20048;-55
2023/10/04 11:59:35;;;;;;;6.85;2.15;;;18.30;99.90;;;;;;5051593;28;20110;-54
2023/10/04 12:02:02;;;;;;;11.93;1.50;;;18.30;99.90;;;;;;5045532;28;20072;-60
2023/10/04 12:04:30;;;;;;;3.70;1.67;;;18.30;99.90;;;;;;5042804;28;20126;-56
2023/10/04 12:07:09;;;;;;;7.15;1.55;;;18.40;99.90;;;;;;5037429;28;20045;-54
2023/10/04 12:09:36;;;;;;;5.78;1.27;;;18.40;99.90;;;;;;5043180;28;20070;-55
2023/10/04 12:12:05;;;;;;;6.88;1.67;;;18.40;99.90;;;;;;5044768;28;20479;-55
2023/10/04 12:14:32;;;;;;;4.80;1.50;;;18.40;99.90;;;;;;5052860;28;20098;-54
2023/10/04 12:17:03;;;;;;;7.28;1.80;;;18.40;99.90;;;;;;5051122;28;20491;-54
2023/10/04 12:19:37;;;;;;;4.95;1.40;;;18.40;99.90;;;;;;5052736;28;20083;-55
2023/10/04 12:22:11;;;;;;;12.23;2.40;;;18.40;99.90;;;;;;5047804;28;20048;-54
2023/10/04 12:24:38;;;;;;;7.88;1.70;;;18.50;99.90;;;;;;4709359;28;10000414;-59
2023/10/04 12:27:09;;;;;;;3.88;1.48;;;18.70;99.90;;;;;;5043770;28;20072;-55
2023/10/04 12:29:36;;;;;;;4.80;1.60;;;18.70;99.90;;;;;;5041835;28;20092;-53
2023/10/04 12:32:05;;;;;;;6.40;1.63;;;18.70;99.90;;;;;;5022573;28;20080;-54
2023/10/04 12:34:32;;;;;;;7.65;1.60;;;18.70;99.90;;;;;;5011387;28;20076;-53
2023/10/04 12:37:00;;;;;;;6.43;1.38;;;18.60;99.90;;;;;;5047356;28;20052;-55
2023/10/04 12:39:27;;;;;;;5.25;1.75;;;18.70;99.90;;;;;;5036226;28;20135;-53
2023/10/04 12:41:55;;;;;;;6.97;1.77;;;18.80;99.90;;;;;;5008049;28;20688;-55
2023/10/04 12:44:23;;;;;;;8.77;1.80;;;18.90;99.90;;;;;;5036473;28;20041;-55
2023/10/04 12:46:50;;;;;;;10.98;2.10;;;18.90;99.90;;;;;;5045662;28;20064;-54
2023/10/04 12:49:18;;;;;;;4.53;1.38;;;18.80;99.90;;;;;;5014477;28;20045;-55
2023/10/04 12:51:46;;;;;;;3.90;1.40;;;18.70;99.90;;;;;;5015559;28;20091;-54
2023/10/04 12:54:13;;;;;;;3.25;1.23;;;18.80;99.90;;;;;;5026490;28;20071;-55